Time;durP1;ratioP1;P1;durP2;ratioP2;P2;SDS_P1;SDS_P2;PMS_P1;PMS_P2;Temp;Humidity;BMP_temperature;BMP_pressure;BME280_temperature;BME280_humidity;BME280_pressure;Samples;Min_cycle;Max_cycle;Signal;HPM_P1;HPM_P2
2020/12/26 00:02:00;;;;;;;6.63;3.15;;;;;;;3.00;72.77;99713.41;5056679;28;20044;-71
2020/12/26 00:04:28;;;;;;;4.63;2.60;;;;;;;2.92;72.83;99722.41;5056847;28;20525;-71
2020/12/26 00:06:57;;;;;;;4.90;2.25;;;;;;;2.92;73.61;99724.94;5056319;28;20075;-71
2020/12/26 00:09:25;;;;;;;5.68;2.67;;;;;;;2.91;72.77;99723.19;5056539;28;20083;-72
2020/12/26 00:11:53;;;;;;;4.93;2.42;;;;;;;2.89;72.63;99719.78;5056620;28;20045;-72
2020/12/26 00:14:27;;;;;;;4.22;2.47;;;;;;;2.87;73.01;99722.28;5056466;28;20068;-71
2020/12/26 00:16:55;;;;;;;4.65;2.30;;;;;;;2.86;72.60;99724.72;5056364;28;20116;-71
2020/12/26 00:19:23;;;;;;;4.78;2.50;;;;;;;2.86;72.98;99725.59;5032314;28;20048;-70
2020/12/26 00:21:51;;;;;;;6.47;2.13;;;;;;;2.86;72.08;99727.25;5056233;28;20037;-71
2020/12/26 00:24:20;;;;;;;3.97;2.03;;;;;;;2.83;72.33;99725.53;5056411;28;20053;-71
2020/12/26 00:26:48;;;;;;;4.45;2.08;;;;;;;2.88;73.00;99734.03;5056088;28;20122;-71
2020/12/26 00:29:15;;;;;;;4.88;1.92;;;;;;;2.90;72.43;99739.16;5056109;28;20041;-71
2020/12/26 00:31:47;;;;;;;3.70;1.92;;;;;;;2.86;72.22;99734.81;5056107;28;20083;-71
2020/12/26 00:34:16;;;;;;;4.55;2.08;;;;;;;2.91;71.84;99743.38;5056115;28;20044;-71
2020/12/26 00:36:43;;;;;;;4.28;2.17;;;;;;;2.91;71.14;99748.41;5055944;28;20080;-71
2020/12/26 00:39:13;;;;;;;3.40;1.98;;;;;;;2.84;71.52;99746.50;5055399;28;20493;-71
2020/12/26 00:41:45;;;;;;;4.60;1.90;;;;;;;2.75;71.32;99733.63;5056186;28;20429;-75
2020/12/26 00:44:13;;;;;;;4.13;2.03;;;;;;;2.82;70.86;99743.94;5038110;28;20091;-71
2020/12/26 00:46:40;;;;;;;3.83;1.88;;;;;;;2.83;70.83;99744.81;5055770;28;20043;-71
2020/12/26 00:49:10;;;;;;;;;;;;;;;2.89;70.57;99745.00;5038473;28;20053;-71
2020/12/26 00:51:38;;;;;;;4.55;2.03;;;;;;;2.92;70.47;99735.00;5055747;28;20386;-71
2020/12/26 00:54:05;;;;;;;3.70;1.90;;;;;;;2.85;70.50;99723.91;5055604;28;20438;-71
2020/12/26 00:56:36;;;;;;;4.07;1.70;;;;;;;2.81;70.33;99721.25;5055687;28;20487;-71
2020/12/26 00:59:08;;;;;;;4.20;1.90;;;;;;;2.77;69.91;99725.31;5037677;28;20538;-72
2020/12/26 01:01:38;;;;;;;5.30;2.03;;;;;;;2.77;70.36;99734.53;5055580;28;20135;-71
2020/12/26 01:04:10;;;;;;;3.50;1.95;;;;;;;2.72;70.00;99732.72;5037740;28;20119;-71
2020/12/26 01:06:38;;;;;;;3.72;1.77;;;;;;;2.69;69.54;99742.72;5055115;28;20384;-71
2020/12/26 01:09:06;;;;;;;3.45;2.03;;;;;;;2.70;69.89;99733.50;5055320;28;20102;-71
2020/12/26 01:11:34;;;;;;;3.50;1.63;;;;;;;2.70;70.08;99738.53;5055355;28;20629;-72
2020/12/26 01:14:01;;;;;;;3.95;1.92;;;;;;;2.68;70.03;99746.06;5055477;28;20368;-71
2020/12/26 01:16:30;;;;;;;2.85;1.65;;;;;;;2.69;69.22;99750.28;5055242;28;20045;-71
2020/12/26 01:18:57;;;;;;;4.63;2.00;;;;;;;2.74;68.68;99750.41;5055327;28;20066;-72
2020/12/26 01:21:25;;;;;;;3.55;1.45;;;;;;;2.71;69.06;99751.16;5055130;28;20045;-71
2020/12/26 01:23:52;;;;;;;3.67;1.70;;;;;;;2.75;69.27;99754.66;5054361;28;20045;-72
2020/12/26 01:26:20;;;;;;;4.60;1.90;;;;;;;2.76;68.37;99758.88;5055022;28;20524;-72
2020/12/26 01:28:48;;;;;;;7.70;2.63;;;;;;;2.72;68.87;99762.97;5054865;28;20134;-72
2020/12/26 01:31:16;;;;;;;6.50;2.30;;;;;;;2.69;68.07;99762.88;5053011;28;20049;-73
2020/12/26 01:33:44;;;;;;;5.63;2.50;;;;;;;2.68;68.59;99766.22;5051615;28;20136;-72
2020/12/26 01:36:15;;;;;;;4.60;1.98;;;;;;;2.70;68.75;99764.59;5037295;28;20446;-72
2020/12/26 01:38:43;;;;;;;6.40;2.15;;;;;;;2.65;68.34;99761.06;5054584;28;20131;-72
2020/12/26 01:41:13;;;;;;;6.88;2.47;;;;;;;2.67;68.85;99769.53;5054768;28;20495;-72
2020/12/26 01:43:53;;;;;;;4.45;1.83;;;;;;;2.60;68.82;99765.09;5054718;28;20098;-72
2020/12/26 01:46:23;;;;;;;5.25;1.67;;;;;;;2.61;68.16;99776.91;5054668;28;20055;-73
2020/12/26 01:48:51;;;;;;;3.50;1.50;;;;;;;2.64;68.48;99773.59;5054621;28;20048;-73
2020/12/26 01:51:20;;;;;;;3.47;1.50;;;;;;;2.63;68.70;99792.06;5053412;28;20041;-73
2020/12/26 01:53:48;;;;;;;2.92;1.45;;;;;;;2.55;68.62;99789.28;5054544;28;20132;-73
2020/12/26 01:56:16;;;;;;;2.83;1.40;;;;;;;2.53;67.84;99800.13;5049349;28;20045;-73
2020/12/26 01:58:44;;;;;;;2.88;1.38;;;;;;;2.58;68.22;99794.44;5032719;28;20081;-73
2020/12/26 02:01:13;;;;;;;2.08;1.20;;;;;;;2.60;67.67;99792.81;5034696;28;20037;-72
2020/12/26 02:03:41;;;;;;;2.38;1.27;;;;;;;2.57;68.05;99797.75;5034316;28;20503;-72
2020/12/26 02:06:10;;;;;;;4.25;1.40;;;;;;;2.54;67.36;99807.72;5034086;28;20061;-72
2020/12/26 02:08:39;;;;;;;2.03;1.10;;;;;;;2.52;67.35;99800.94;5049745;28;20057;-72
2020/12/26 02:11:08;;;;;;;3.03;1.25;;;;;;;2.53;67.69;99811.06;5054157;28;20508;-72
2020/12/26 02:13:37;;;;;;;;;;;;;;;2.53;67.00;99813.56;5055206;28;20049;-72
2020/12/26 02:16:05;;;;;;;2.20;1.20;;;;;;;2.56;67.03;99816.19;5036017;28;20086;-73
2020/12/26 02:18:33;;;;;;;2.47;1.20;;;;;;;2.56;66.77;99815.34;5036267;28;20529;-73
2020/12/26 02:21:01;;;;;;;2.67;1.13;;;;;;;2.53;66.12;99818.59;5053975;28;20041;-73
2020/12/26 02:23:30;;;;;;;1.42;0.90;;;;;;;2.46;66.19;99806.63;5054020;28;20041;-73
2020/12/26 02:25:59;;;;;;;2.80;1.13;;;;;;;2.49;65.19;99821.84;5054450;28;20056;-73
2020/12/26 02:28:28;;;;;;;;;;;;;;;2.55;65.03;99827.06;5047993;28;20503;-74
2020/12/26 02:30:55;;;;;;;2.67;1.20;;;;;;;2.60;64.94;99829.72;5053684;28;19920;-73
2020/12/26 02:33:23;;;;;;;1.38;0.90;;;;;;;2.62;64.52;99831.50;5049219;28;20041;-73
2020/12/26 02:35:51;;;;;;;2.30;1.25;;;;;;;2.59;64.71;99831.38;5034373;28;20038;-73
2020/12/26 02:38:20;;;;;;;1.80;1.17;;;;;;;2.47;64.83;99820.91;5033890;28;20080;-73
2020/12/26 02:40:47;;;;;;;2.10;1.20;;;;;;;2.61;64.95;99829.81;5033857;28;20041;-74
2020/12/26 02:43:21;;;;;;;2.30;1.05;;;;;;;2.61;64.54;99829.81;5053374;28;20526;-73
2020/12/26 02:45:51;;;;;;;1.88;1.00;;;;;;;2.60;64.44;99823.03;5053541;28;20069;-73
2020/12/26 02:48:19;;;;;;;2.72;1.17;;;;;;;2.46;64.61;99809.13;5053542;28;20049;-73
2020/12/26 02:50:55;;;;;;;3.08;1.30;;;;;;;2.53;64.44;99828.69;5054008;28;20068;-73
2020/12/26 02:53:23;;;;;;;2.70;1.10;;;;;;;2.52;64.10;99824.44;5053881;28;20049;-73
2020/12/26 02:55:51;;;;;;;3.03;1.27;;;;;;;2.40;64.33;99813.94;5053558;28;20067;-73
2020/12/26 02:58:20;;;;;;;3.17;1.08;;;;;;;2.46;64.99;99829.28;5053082;28;20041;-73
2020/12/26 03:00:49;;;;;;;1.98;1.23;;;;;;;2.42;65.27;99842.59;5053319;28;20045;-73
2020/12/26 03:03:17;;;;;;;3.33;1.10;;;;;;;2.39;65.35;99841.63;5035906;28;20045;-73
2020/12/26 03:05:45;;;;;;;3.25;1.20;;;;;;;2.28;65.28;99821.09;5053375;28;20044;-73
2020/12/26 03:08:13;;;;;;;3.92;1.50;;;;;;;2.43;64.93;99850.97;5053269;28;20040;-73
2020/12/26 03:10:41;;;;;;;2.88;1.30;;;;;;;2.46;65.33;99848.56;5053382;28;20069;-73
2020/12/26 03:13:09;;;;;;;2.08;1.20;;;;;;;2.45;65.56;99856.91;5053153;28;20525;-73
2020/12/26 03:15:38;;;;;;;2.55;1.20;;;;;;;2.45;65.36;99851.88;5052385;28;20041;-73
2020/12/26 03:18:05;;;;;;;2.53;1.20;;;;;;;2.46;65.01;99854.47;5053280;28;20056;-73
2020/12/26 03:20:33;;;;;;;2.67;1.30;;;;;;;2.55;65.22;99859.81;5053223;28;20449;-73
2020/12/26 03:23:02;;;;;;;2.25;1.10;;;;;;;2.52;64.52;99848.78;5045516;28;20070;-73
2020/12/26 03:25:30;;;;;;;2.60;1.17;;;;;;;2.52;64.48;99854.66;5033742;28;20392;-73
2020/12/26 03:27:57;;;;;;;3.22;1.30;;;;;;;2.43;65.15;99853.50;5015119;28;20492;-73
2020/12/26 03:30:27;;;;;;;2.67;1.00;;;;;;;2.42;64.41;99857.69;5046219;28;20453;-73
2020/12/26 03:32:55;;;;;;;2.60;1.20;;;;;;;2.38;64.65;99860.91;5049490;28;20045;-73
2020/12/26 03:35:23;;;;;;;2.28;1.10;;;;;;;2.42;64.73;99866.91;5033185;28;20049;-73
2020/12/26 03:37:51;;;;;;;2.03;1.17;;;;;;;2.39;64.88;99869.31;5016153;28;20041;-74
2020/12/26 03:40:20;;;;;;;2.08;1.10;;;;;;;2.39;64.92;99871.84;5033178;28;20046;-73
2020/12/26 03:42:47;;;;;;;2.65;1.20;;;;;;;2.43;64.22;99879.53;4999249;28;20044;-73
2020/12/26 03:45:15;;;;;;;1.60;1.00;;;;;;;2.48;64.30;99878.03;5034322;28;20091;-74
2020/12/26 03:47:42;;;;;;;2.50;1.08;;;;;;;2.40;64.74;99874.38;5052900;28;20041;-73
2020/12/26 03:50:11;;;;;;;2.25;1.13;;;;;;;2.43;64.58;99877.03;5035107;28;20049;-73
2020/12/26 03:52:39;;;;;;;2.47;1.20;;;;;;;2.47;63.80;99881.34;5052947;28;20498;-73
2020/12/26 03:55:07;;;;;;;2.35;1.20;;;;;;;2.47;63.70;99886.38;5035440;28;20434;-73
2020/12/26 03:57:34;;;;;;;2.30;1.13;;;;;;;2.41;64.45;99888.72;5052911;28;20045;-73
2020/12/26 04:00:05;;;;;;;2.20;1.10;;;;;;;2.36;64.56;99895.25;5052800;28;20041;-73
2020/12/26 04:02:34;;;;;;;3.55;1.10;;;;;;;2.43;64.66;99897.16;5053276;28;20115;-74
2020/12/26 04:05:03;;;;;;;2.35;1.00;;;;;;;2.43;64.24;99898.81;5052921;28;20037;-73
2020/12/26 04:07:32;;;;;;;2.17;0.95;;;;;;;2.31;64.30;99883.28;5052010;28;20045;-73
2020/12/26 04:10:00;;;;;;;2.20;0.95;;;;;;;2.37;64.89;99894.44;5035268;28;20512;-72
2020/12/26 04:12:27;;;;;;;2.63;1.35;;;;;;;2.39;64.65;99897.88;5052795;28;20111;-73
2020/12/26 04:14:55;;;;;;;1.92;1.00;;;;;;;2.43;64.79;99904.72;5056129;28;20043;-73
2020/12/26 04:17:23;;;;;;;3.70;1.92;;;;;;;2.37;64.34;99902.00;5056397;28;20045;-73
2020/12/26 04:19:51;;;;;;;3.22;1.40;;;;;;;2.38;64.31;99911.25;5056308;28;20498;-73
2020/12/26 04:22:19;;;;;;;4.05;1.60;;;;;;;2.40;64.32;99904.59;5050402;28;20116;-73
2020/12/26 04:24:47;;;;;;;2.50;1.30;;;;;;;2.41;64.57;99910.50;5036696;28;20049;-73
2020/12/26 04:27:15;;;;;;;3.47;2.13;;;;;;;2.41;64.65;99911.38;5036206;28;20038;-73
2020/12/26 04:29:44;;;;;;;2.67;1.40;;;;;;;2.39;63.70;99913.00;5036166;28;20038;-73
2020/12/26 04:32:11;;;;;;;2.70;1.00;;;;;;;2.42;64.57;99913.09;5018598;28;20042;-73
2020/12/26 04:34:39;;;;;;;2.53;1.08;;;;;;;2.45;63.96;99910.66;5036065;28;20117;-73
2020/12/26 04:37:06;;;;;;;2.10;1.23;;;;;;;2.55;64.43;99915.22;5040244;28;20091;-74
2020/12/26 04:39:35;;;;;;;2.42;1.10;;;;;;;2.54;63.50;99921.06;5055980;28;20044;-73
2020/12/26 04:42:05;;;;;;;3.03;1.48;;;;;;;2.54;64.49;99928.63;5046116;28;20075;-73
2020/12/26 04:44:33;;;;;;;3.90;2.45;;;;;;;2.52;64.14;99912.59;5038031;28;20503;-73
2020/12/26 04:47:08;;;;;;;2.65;1.27;;;;;;;2.59;64.03;99923.75;5055811;28;20052;-73
2020/12/26 04:49:39;;;;;;;2.08;1.27;;;;;;;2.48;64.05;99908.25;5056024;28;20052;-73
2020/12/26 04:52:11;;;;;;;2.08;1.08;;;;;;;2.51;64.81;99922.63;5055802;28;20037;-73
2020/12/26 04:54:43;;;;;;;2.13;1.10;;;;;;;2.53;64.61;99926.91;5043065;28;20099;-73
2020/12/26 04:57:11;;;;;;;1.63;0.98;;;;;;;2.51;64.13;99923.50;5038186;28;20132;-73
2020/12/26 04:59:41;;;;;;;6.35;4.78;;;;;;;2.44;64.61;99921.56;5037873;28;20049;-73
2020/12/26 05:02:14;;;;;;;2.90;1.85;;;;;;;2.47;64.04;99931.72;5055438;28;20045;-74
2020/12/26 05:04:42;;;;;;;2.03;1.17;;;;;;;2.40;64.81;99929.78;5055576;28;20049;-73
2020/12/26 05:07:24;;;;;;;1.92;1.13;;;;;;;2.47;64.66;99921.66;4993938;28;20042;-74
2020/12/26 05:09:52;;;;;;;2.15;0.98;;;;;;;2.45;64.45;99918.22;4994194;28;20497;-74
2020/12/26 05:12:21;;;;;;;2.20;1.05;;;;;;;2.40;64.49;99919.72;4994018;28;20043;-74
2020/12/26 05:14:51;;;;;;;1.90;1.00;;;;;;;2.41;64.51;99921.44;4985659;28;20039;-73
2020/12/26 05:17:20;;;;;;;2.42;1.17;;;;;;;2.25;63.83;99906.63;4974540;28;20430;-74
2020/12/26 05:19:48;;;;;;;1.97;1.13;;;;;;;2.35;64.21;99938.84;4974435;28;20077;-74
2020/12/26 05:22:29;;;;;;;2.70;1.35;;;;;;;2.37;64.85;99933.88;4974547;28;20136;-73
2020/12/26 05:25:05;;;;;;;1.23;0.82;;;;;;;2.42;63.91;99935.78;4974388;28;20043;-73
2020/12/26 05:27:35;;;;;;;2.28;1.00;;;;;;;2.43;64.00;99941.63;4974393;28;20122;-73
2020/12/26 05:30:05;;;;;;;3.03;1.25;;;;;;;2.39;64.41;99935.66;4977471;28;20077;-73
2020/12/26 05:32:34;;;;;;;1.73;1.00;;;;;;;2.40;64.97;99939.88;4978435;28;20525;-73
2020/12/26 05:35:05;;;;;;;2.83;1.30;;;;;;;2.43;64.10;99934.94;4983248;28;20401;-74
2020/12/26 05:37:34;;;;;;;2.95;1.17;;;;;;;2.44;64.15;99946.75;4993603;28;20533;-73
2020/12/26 05:40:04;;;;;;;3.08;1.10;;;;;;;2.39;64.74;99945.72;4993441;28;20042;-74
2020/12/26 05:42:32;;;;;;;3.30;1.35;;;;;;;2.45;64.98;99953.47;4993550;28;20046;-74
2020/12/26 05:45:06;;;;;;;2.67;0.98;;;;;;;2.44;64.26;99961.84;5007679;28;20512;-74
2020/12/26 05:47:35;;;;;;;4.78;1.50;;;;;;;2.43;64.05;99964.31;5014994;28;20107;-74
2020/12/26 05:50:03;;;;;;;3.50;1.45;;;;;;;2.45;63.75;99967.72;5015456;28;20080;-73
2020/12/26 05:52:53;;;;;;;3.15;1.30;;;;;;;2.43;64.14;99964.31;5013890;28;20049;-73
2020/12/26 05:55:22;;;;;;;3.75;1.40;;;;;;;2.46;63.84;99971.97;5015261;28;20070;-74
2020/12/26 05:57:53;;;;;;;3.38;1.30;;;;;;;2.46;64.63;99982.91;5015067;28;20045;-73
2020/12/26 06:00:32;;;;;;;1.90;1.20;;;;;;;2.45;64.51;99983.72;5014871;28;20555;-73
2020/12/26 06:03:00;;;;;;;4.10;1.20;;;;;;;2.46;63.59;99987.97;5015204;28;20404;-73
2020/12/26 06:05:28;;;;;;;3.92;1.30;;;;;;;2.46;64.01;99989.59;5018358;28;20566;-73
2020/12/26 06:07:56;;;;;;;2.67;1.30;;;;;;;2.46;63.85;99998.03;5034374;28;20462;-73
2020/12/26 06:10:24;;;;;;;3.55;1.50;;;;;;;2.44;63.76;99994.59;5034352;28;20037;-73
2020/12/26 06:12:52;;;;;;;3.70;1.90;;;;;;;2.46;63.60;99995.50;5034202;28;20038;-73
2020/12/26 06:15:26;;;;;;;3.17;1.40;;;;;;;2.53;63.70;100002.47;5034266;28;20037;-74
2020/12/26 06:18:12;;;;;;;2.42;1.30;;;;;;;2.44;63.40;100011.38;5034105;28;20468;-73
2020/12/26 06:20:42;;;;;;;2.13;1.10;;;;;;;2.49;63.20;100010.75;5034214;28;20487;-73
2020/12/26 06:23:25;;;;;;;2.92;1.15;;;;;;;2.45;63.14;100018.97;4945227;28;20138;-73
2020/12/26 06:25:55;;;;;;;2.38;1.05;;;;;;;2.47;62.95;100022.41;4919316;29;20040;-74
2020/12/26 06:28:27;;;;;;;1.52;1.02;;;;;;;2.44;62.91;100029.88;4952726;29;20124;-73
2020/12/26 06:30:58;;;;;;;1.67;0.90;;;;;;;2.44;63.39;100029.88;4952682;29;20044;-73
2020/12/26 06:33:32;;;;;;;2.05;1.13;;;;;;;2.48;62.58;100036.72;4952809;29;20057;-73
2020/12/26 06:36:05;;;;;;;2.63;1.20;;;;;;;2.50;63.07;100047.69;4952197;28;20055;-74
2020/12/26 06:38:33;;;;;;;4.25;1.60;;;;;;;2.43;63.25;100053.31;4953859;29;20054;-74
2020/12/26 06:41:21;;;;;;;2.63;1.00;;;;;;;2.40;62.76;100045.63;4877940;29;20089;-73
2020/12/26 06:43:51;;;;;;;1.92;1.13;;;;;;;2.54;62.54;100073.88;4878137;29;20045;-73
2020/12/26 06:46:25;;;;;;;3.40;1.60;;;;;;;2.58;62.31;100071.53;4868539;29;20045;-73
2020/12/26 06:48:56;;;;;;;2.05;1.13;;;;;;;2.45;63.12;100064.31;4861872;29;20045;-74
2020/12/26 06:51:25;;;;;;;3.45;1.13;;;;;;;1.96;63.00;100002.84;4877263;29;20099;-75
2020/12/26 06:53:55;;;;;;;2.55;1.00;;;;;;;2.45;63.27;100097.03;4877138;29;20085;-74
2020/12/26 06:56:40;;;;;;;1.27;0.85;;;;;;;2.37;63.96;100078.28;4873702;29;20050;-74
2020/12/26 06:59:09;;;;;;;3.42;1.00;;;;;;;2.46;63.93;100093.75;4860905;29;20057;-74
2020/12/26 07:01:38;;;;;;;2.17;1.13;;;;;;;2.45;64.05;100094.53;4930052;28;20048;-74
2020/12/26 07:04:12;;;;;;;2.40;1.10;;;;;;;2.52;64.54;100093.94;4934396;29;20143;-75
2020/12/26 07:06:41;;;;;;;2.15;1.27;;;;;;;2.51;65.23;100099.81;4934739;28;20091;-75
2020/12/26 07:09:10;;;;;;;2.58;1.00;;;;;;;2.60;64.58;100109.38;4934310;29;20052;-75
2020/12/26 07:11:44;;;;;;;2.00;1.10;;;;;;;2.58;65.47;100111.84;4934943;28;20071;-74
2020/12/26 07:14:17;;;;;;;2.90;1.20;;;;;;;2.63;64.81;100114.53;4938113;29;20135;-71
2020/12/26 07:16:45;;;;;;;3.28;1.30;;;;;;;2.66;65.07;100115.47;4934109;28;20568;-73
2020/12/26 07:19:19;;;;;;;2.22;1.20;;;;;;;2.72;65.24;100122.41;5001450;28;20054;-73
2020/12/26 07:21:49;;;;;;;4.13;1.33;;;;;;;2.73;65.19;100122.47;5012740;28;20172;-73
2020/12/26 07:24:17;;;;;;;3.65;1.55;;;;;;;2.73;65.00;100127.50;5013881;28;20042;-73
2020/12/26 07:26:45;;;;;;;4.75;1.83;;;;;;;2.77;65.33;100125.09;5013585;28;20069;-72
2020/12/26 07:29:23;;;;;;;3.95;1.75;;;;;;;2.81;65.11;100129.47;5023465;28;20038;-75
2020/12/26 07:31:51;;;;;;;4.13;1.92;;;;;;;2.85;65.29;100136.34;5015090;28;20084;-76
2020/12/26 07:34:24;;;;;;;5.00;2.25;;;;;;;2.82;64.94;100134.56;5032212;28;20065;-75
2020/12/26 07:36:54;;;;;;;5.72;2.30;;;;;;;2.83;65.42;100135.44;5033221;28;20045;-75
2020/12/26 07:39:21;;;;;;;5.68;2.28;;;;;;;2.88;65.59;100141.50;5033199;28;20042;-75
2020/12/26 07:41:52;;;;;;;5.03;2.45;;;;;;;2.93;66.16;100134.97;5032962;28;20057;-76
2020/12/26 07:44:21;;;;;;;4.90;2.08;;;;;;;2.93;66.83;100140.00;5017036;28;20041;-75
2020/12/26 07:46:50;;;;;;;6.97;2.97;;;;;;;2.94;66.71;100137.53;5032757;28;20080;-76
2020/12/26 07:49:18;;;;;;;6.55;2.80;;;;;;;2.95;66.87;100143.44;5026639;28;20049;-75
2020/12/26 07:52:02;;;;;;;4.95;2.20;;;;;;;2.92;66.88;100139.16;5036755;28;20080;-76
2020/12/26 07:54:30;;;;;;;4.28;2.40;;;;;;;2.73;66.63;100116.59;5036290;28;20069;-75
2020/12/26 07:56:59;;;;;;;5.10;2.20;;;;;;;2.93;66.80;100150.94;5036883;28;20046;-75
2020/12/26 07:59:27;;;;;;;3.63;2.00;;;;;;;2.91;66.71;100151.69;5035476;28;20052;-75
2020/12/26 08:01:56;;;;;;;4.35;2.00;;;;;;;2.81;66.96;100134.53;5036747;28;20042;-75
2020/12/26 08:04:25;;;;;;;5.00;2.25;;;;;;;2.30;67.21;100043.59;5037311;28;20045;-75
2020/12/26 08:06:52;;;;;;;4.20;2.00;;;;;;;2.95;67.15;100148.50;5051555;28;20057;-75
2020/12/26 08:09:21;;;;;;;4.43;2.10;;;;;;;2.55;67.92;100078.97;5046359;28;20103;-76
2020/12/26 08:11:49;;;;;;;6.80;2.70;;;;;;;2.93;67.65;100143.38;5036018;28;20046;-75
2020/12/26 08:14:18;;;;;;;6.68;3.20;;;;;;;2.96;68.13;100150.19;5038120;28;20043;-76
2020/12/26 08:16:46;;;;;;;6.85;2.90;;;;;;;2.92;67.69;100153.41;5028397;28;20041;-76
2020/12/26 08:19:19;;;;;;;;;;;;;;;2.95;68.19;100154.38;5045310;28;20044;-76
2020/12/26 08:21:47;;;;;;;5.45;2.90;;;;;;;3.00;68.12;100147.84;5004302;28;19975;-75
2020/12/26 08:24:29;;;;;;;6.85;2.70;;;;;;;2.99;67.84;100148.66;5036659;28;20061;-76
2020/12/26 08:26:57;;;;;;;4.82;2.42;;;;;;;3.04;68.66;100151.34;5018152;28;20048;-76
2020/12/26 08:29:28;;;;;;;5.95;2.90;;;;;;;3.07;68.43;100164.91;5036192;28;20108;-77
2020/12/26 08:32:01;;;;;;;6.82;3.25;;;;;;;2.98;67.96;100144.41;5046684;28;20052;-76
2020/12/26 08:34:40;;;;;;;5.43;2.83;;;;;;;3.06;69.05;100150.59;5038217;28;20421;-77
2020/12/26 08:37:16;;;;;;;7.85;3.72;;;;;;;3.17;68.93;100166.97;5048230;28;20049;-77
2020/12/26 08:39:45;;;;;;;10.45;4.45;;;;;;;3.14;69.02;100166.00;5035646;28;20499;-77
2020/12/26 08:42:13;;;;;;;7.53;4.20;;;;;;;2.96;69.04;100150.19;5026976;28;20479;-77
2020/12/26 08:44:42;;;;;;;8.33;3.77;;;;;;;3.21;69.29;100178.03;5029200;28;20060;-77
2020/12/26 08:47:10;;;;;;;5.90;3.15;;;;;;;3.23;68.98;100186.50;5050548;28;20068;-77
2020/12/26 08:49:45;;;;;;;5.65;3.08;;;;;;;3.24;69.24;100194.13;5036963;28;20034;-77
2020/12/26 08:52:22;;;;;;;6.32;2.72;;;;;;;3.26;69.67;100186.63;5050949;28;20426;-77
2020/12/26 08:55:04;;;;;;;5.25;2.80;;;;;;;3.02;69.12;100155.47;5034159;28;20099;-76
2020/12/26 08:57:32;;;;;;;4.57;2.45;;;;;;;3.30;69.21;100193.50;5032307;28;20038;-77
2020/12/26 09:00:05;;;;;;;5.70;2.85;;;;;;;3.31;69.79;100195.22;5038164;28;20047;-77
2020/12/26 09:02:34;;;;;;;5.57;2.72;;;;;;;3.39;69.99;100198.84;4997337;28;20076;-77
2020/12/26 09:05:20;;;;;;;5.28;2.72;;;;;;;3.31;69.67;100195.22;5034292;28;20042;-76
2020/12/26 09:08:00;;;;;;;4.60;2.25;;;;;;;3.38;69.89;100209.78;5010441;28;20080;-75
2020/12/26 09:10:31;;;;;;;4.97;2.30;;;;;;;3.43;69.68;100215.84;5008531;28;20120;-77
2020/12/26 09:13:03;;;;;;;4.30;2.30;;;;;;;3.43;68.97;100215.84;5006947;28;20500;-74
2020/12/26 09:15:36;;;;;;;4.18;2.13;;;;;;;3.47;68.80;100210.09;4996848;28;139292;-71
2020/12/26 09:18:15;;;;;;;5.45;2.60;;;;;;;3.46;69.12;100212.53;4994483;28;20137;-72
2020/12/26 09:20:47;;;;;;;4.47;2.65;;;;;;;3.49;69.48;100215.19;5006291;28;20396;-73
2020/12/26 09:23:16;;;;;;;5.38;2.83;;;;;;;3.47;69.50;100217.66;5005825;28;20040;-72
2020/12/26 09:25:45;;;;;;;4.70;2.45;;;;;;;3.47;69.24;100217.66;5001085;28;20493;-72
2020/12/26 09:28:13;;;;;;;5.10;3.10;;;;;;;3.48;69.04;100216.84;4996003;28;20121;-73
2020/12/26 09:30:41;;;;;;;6.57;3.35;;;;;;;3.43;68.19;100203.22;4995784;28;20069;-73
2020/12/26 09:33:09;;;;;;;6.57;3.38;;;;;;;3.45;67.88;100214.22;4996016;28;20496;-73
2020/12/26 09:35:37;;;;;;;6.38;2.92;;;;;;;3.47;67.32;100221.84;4994557;28;20039;-73
2020/12/26 09:38:05;;;;;;;5.00;2.38;;;;;;;3.56;67.18;100223.03;4994540;28;20045;-73
2020/12/26 09:40:35;;;;;;;5.00;2.58;;;;;;;3.58;67.61;100220.53;4995538;28;20046;-72
2020/12/26 09:43:04;;;;;;;;;;;;;;;3.59;67.47;100223.16;4996040;28;20104;-73
2020/12/26 09:45:32;;;;;;;6.05;1.92;;;;;;;3.68;66.30;100218.41;4994386;28;19961;-73
2020/12/26 09:48:01;;;;;;;4.57;2.17;;;;;;;3.69;66.23;100215.09;4995374;28;20096;-72
2020/12/26 09:50:29;;;;;;;4.43;2.50;;;;;;;3.38;65.62;100160.16;5010620;28;20078;-73
2020/12/26 09:52:56;;;;;;;5.63;2.67;;;;;;;3.72;66.01;100212.66;4995577;28;20045;-73
2020/12/26 09:55:28;;;;;;;4.55;2.10;;;;;;;3.74;65.00;100208.50;4995397;28;20058;-73
2020/12/26 09:57:55;;;;;;;3.85;2.10;;;;;;;3.78;64.68;100206.97;5010670;28;20080;-72
2020/12/26 10:00:24;;;;;;;4.72;2.40;;;;;;;3.79;64.83;100206.19;4994012;28;20050;-73
2020/12/26 10:02:53;;;;;;;4.07;2.22;;;;;;;3.79;64.46;100212.06;5010347;28;20049;-72
2020/12/26 10:05:20;;;;;;;4.35;2.08;;;;;;;3.80;64.04;100208.75;4999904;28;20125;-72
2020/12/26 10:07:48;;;;;;;3.80;1.95;;;;;;;3.78;63.87;100212.88;5034402;28;20049;-73
2020/12/26 10:10:16;;;;;;;4.65;2.10;;;;;;;3.82;63.71;100216.38;5033933;28;20442;-73
2020/12/26 10:12:44;;;;;;;4.10;1.75;;;;;;;3.87;63.85;100218.25;5033846;28;20037;-73
2020/12/26 10:15:11;;;;;;;3.97;2.00;;;;;;;3.90;63.39;100214.97;5034213;28;20040;-73
2020/12/26 10:17:42;;;;;;;4.10;2.00;;;;;;;3.96;63.87;100217.69;5034203;28;20549;-73
2020/12/26 10:20:11;;;;;;;4.38;2.10;;;;;;;4.01;63.48;100219.56;5034067;28;20049;-72
2020/12/26 10:22:39;;;;;;;3.25;1.90;;;;;;;4.05;63.12;100216.31;5034103;28;20053;-73
2020/12/26 10:25:07;;;;;;;3.63;1.90;;;;;;;4.06;63.46;100213.00;5034044;28;20042;-73
2020/12/26 10:27:36;;;;;;;3.75;2.00;;;;;;;4.12;63.10;100216.56;5033881;28;20415;-72
2020/12/26 10:30:04;;;;;;;3.75;1.80;;;;;;;4.07;62.98;100214.75;5049301;28;20049;-73
2020/12/26 10:32:32;;;;;;;3.72;1.95;;;;;;;4.15;62.17;100209.09;5049234;28;20042;-73
2020/12/26 10:35:07;;;;;;;4.13;1.88;;;;;;;4.18;61.88;100209.16;5034002;28;20128;-73
2020/12/26 10:37:35;;;;;;;4.75;2.30;;;;;;;4.23;62.07;100208.50;5033783;28;20042;-73
2020/12/26 10:40:03;;;;;;;3.80;1.98;;;;;;;4.20;61.95;100205.88;5033858;28;20072;-72
2020/12/26 10:42:30;;;;;;;3.60;2.10;;;;;;;4.20;62.06;100210.09;5033798;28;20046;-72
2020/12/26 10:44:58;;;;;;;4.80;1.67;;;;;;;4.19;62.22;100211.75;5033742;28;20037;-73
2020/12/26 10:47:26;;;;;;;4.60;2.00;;;;;;;4.22;62.65;100205.94;5033754;28;20462;-72
2020/12/26 10:49:55;;;;;;;4.70;2.58;;;;;;;4.20;61.94;100205.06;5033598;28;20088;-73
2020/12/26 10:52:24;;;;;;;5.20;2.38;;;;;;;4.36;62.17;100212.31;5033650;28;20038;-73
2020/12/26 10:54:52;;;;;;;4.60;2.05;;;;;;;4.32;61.53;100213.03;5033663;28;20055;-72
2020/12/26 10:57:21;;;;;;;3.72;1.98;;;;;;;4.37;61.91;100208.94;5033579;28;20038;-72
2020/12/26 10:59:48;;;;;;;4.45;2.40;;;;;;;4.41;61.54;100199.03;5033644;28;20447;-72
2020/12/26 11:02:16;;;;;;;3.50;2.00;;;;;;;4.32;60.86;100197.88;5033476;28;20091;-72
2020/12/26 11:04:46;;;;;;;4.10;2.10;;;;;;;4.42;60.97;100207.44;5033524;28;20484;-72
2020/12/26 11:07:14;;;;;;;5.30;2.15;;;;;;;4.43;61.03;100211.69;5033287;28;20054;-72
2020/12/26 11:09:43;;;;;;;4.57;2.22;;;;;;;4.40;60.89;100201.47;5033377;28;20418;-72
2020/12/26 11:12:10;;;;;;;3.70;2.40;;;;;;;4.40;61.60;100209.94;5033347;28;20377;-72
2020/12/26 11:14:38;;;;;;;5.45;2.88;;;;;;;4.39;61.19;100192.19;5033720;28;20068;-72
2020/12/26 11:17:07;;;;;;;3.50;2.10;;;;;;;4.40;61.52;100198.94;5033356;28;20056;-73
2020/12/26 11:19:34;;;;;;;3.92;2.30;;;;;;;4.40;61.49;100198.94;5033373;28;20283;-72
2020/12/26 11:22:03;;;;;;;3.92;1.92;;;;;;;4.57;61.07;100205.41;5033860;28;20050;-73
2020/12/26 11:24:30;;;;;;;5.93;2.75;;;;;;;4.98;59.85;100189.84;5037427;28;20075;-73
2020/12/26 11:27:02;;;;;;;5.80;2.90;;;;;;;4.91;60.02;100194.66;5037384;28;20080;-72
2020/12/26 11:29:31;;;;;;;6.13;2.25;;;;;;;4.77;60.03;100199.31;5037485;28;20060;-72
2020/12/26 11:31:59;;;;;;;4.95;2.60;;;;;;;4.63;60.20;100203.09;5037351;28;20574;-72
2020/12/26 11:34:26;;;;;;;4.45;1.90;;;;;;;4.49;59.29;100194.19;5037159;28;20045;-72
2020/12/26 11:36:54;;;;;;;4.28;2.22;;;;;;;4.37;59.41;100178.63;5037220;28;20056;-72
2020/12/26 11:39:23;;;;;;;5.22;2.35;;;;;;;4.51;59.55;100200.16;5037105;28;20526;-72
2020/12/26 11:41:52;;;;;;;3.42;1.73;;;;;;;4.54;58.81;100197.72;5037159;28;20053;-73
2020/12/26 11:44:20;;;;;;;5.05;1.73;;;;;;;4.53;58.46;100201.06;5037067;28;20050;-72
2020/12/26 11:46:48;;;;;;;3.25;1.63;;;;;;;4.60;58.79;100197.94;5036882;28;20038;-73
2020/12/26 11:49:16;;;;;;;3.70;1.98;;;;;;;4.51;58.34;100207.75;5036857;28;20491;-72
2020/12/26 11:51:44;;;;;;;5.57;2.13;;;;;;;4.53;58.35;100206.13;5035792;28;20503;-73